| time (UTC) | temp F | wind direction | speed MPH | gust MPH | rain 1hr in | rain 24hr in | rain mn in | humidity % | barometer mb |
| 20260903224516 | 89 | 203 | 6.0 | 12.0 | 0.00 | 0.00 | 0.00 | 26 | 1015.2 |
| 20260903223016 | 89 | 225 | 5.0 | 12.0 | 0.00 | 0.00 | 0.00 | 26 | 1015.3 |
| 20260903221516 | 89 | 180 | 5.0 | 14.0 | 0.00 | 0.00 | 0.00 | 25 | 1015.3 |
| 20260903220016 | 89 | 203 | 3.0 | 11.0 | 0.00 | 0.00 | 0.00 | 25 | 1015.5 |
| 20260903214536 | 89 | 0.0 | 3.0 | 0.00 | 0.00 | 0.00 | 26 | 1015.7 | |
| 20260903213017 | 88 | 203 | 2.0 | 7.0 | 0.00 | 0.00 | 0.00 | 26 | 1015.9 |
| 20260903211516 | 88 | 203 | 4.0 | 11.0 | 0.00 | 0.00 | 0.00 | 26 | 1016.1 |
| 20260903210016 | 89 | 293 | 4.0 | 11.0 | 0.00 | 0.00 | 0.00 | 25 | 1016.7 |
| 20260903204516 | 89 | 315 | 3.0 | 9.0 | 0.00 | 0.00 | 0.00 | 26 | 1016.9 |
| 20260903203016 | 89 | 158 | 4.0 | 12.0 | 0.00 | 0.00 | 0.00 | 26 | 1017.1 |
| 20260903201516 | 88 | 338 | 6.0 | 14.0 | 0.00 | 0.00 | 0.00 | 27 | 1017.0 |
| 20260903200036 | 87 | 315 | 5.0 | 11.0 | 0.00 | 0.00 | 0.00 | 27 | 1017.0 |
| 20260903194516 | 88 | 338 | 5.0 | 12.0 | 0.00 | 0.00 | 0.00 | 27 | 1017.3 |
| 20260903193016 | 87 | 68 | 5.0 | 11.0 | 0.00 | 0.00 | 0.00 | 27 | 1017.4 |
| 20260903191516 | 87 | 23 | 3.0 | 11.0 | 0.00 | 0.00 | 0.00 | 28 | 1017.7 |
| 20260903190016 | 86 | 225 | 3.0 | 10.0 | 0.00 | 0.00 | 0.00 | 29 | 1018.1 |
| 20260903184516 | 85 | 0 | 4.0 | 13.0 | 0.00 | 0.00 | 0.00 | 29 | 1018.4 |
| 20260903183016 | 85 | 45 | 3.0 | 9.0 | 0.00 | 0.00 | 0.00 | 29 | 1018.6 |
| 20260903181536 | 84 | 23 | 3.0 | 9.0 | 0.00 | 0.00 | 0.00 | 30 | 1019.1 |
| 20260903180016 | 85 | 68 | 3.0 | 9.0 | 0.00 | 0.00 | 0.00 | 29 | 1019.7 |
| 20260903174516 | 84 | 68 | 3.0 | 8.0 | 0.00 | 0.00 | 0.00 | 30 | 1019.8 |
| 20260903173016 | 82 | 23 | 4.0 | 9.0 | 0.00 | 0.00 | 0.00 | 31 | 1019.5 |
| 20260903171536 | 83 | 45 | 4.0 | 12.0 | 0.00 | 0.00 | 0.00 | 31 | 1020.1 |
| 20260903170036 | 82 | 45 | 4.0 | 10.0 | 0.00 | 0.00 | 0.00 | 32 | 1019.7 |
| 20260903164516 | 81 | 45 | 4.0 | 11.0 | 0.00 | 0.00 | 0.00 | 33 | 1019.4 |
| 20260903163016 | 80 | 90 | 4.0 | 8.0 | 0.00 | 0.00 | 0.00 | 34 | 1019.9 |
| 20260903161516 | 79 | 90 | 5.0 | 8.0 | 0.00 | 0.00 | 0.00 | 33 | 1019.5 |
| 20260903160016 | 78 | 90 | 5.0 | 10.0 | 0.00 | 0.00 | 0.00 | 35 | 1019.7 |
| 20260903154516 | 79 | 90 | 3.0 | 10.0 | 0.00 | 0.00 | 0.00 | 34 | 1019.6 |
| 20260903153016 | 78 | 338 | 2.0 | 6.0 | 0.00 | 0.00 | 0.00 | 34 | 1019.6 |
| 20260903151536 | 76 | 338 | 2.0 | 6.0 | 0.00 | 0.00 | 0.00 | 38 | 1019.5 |
| 20260903150016 | 76 | 338 | 3.0 | 7.0 | 0.00 | 0.00 | 0.00 | 38 | 1019.3 |
| 20260903144516 | 76 | 0 | 5.0 | 9.0 | 0.00 | 0.00 | 0.00 | 39 | 1019.3 |
| 20260903143016 | 76 | 338 | 7.0 | 11.0 | 0.00 | 0.00 | 0.00 | 39 | 1019.6 |
| 20260903141515 | 76 | 23 | 5.0 | 8.0 | 0.00 | 0.00 | 0.00 | 38 | 1019.7 |
| 20260903140016 | 75 | 338 | 5.0 | 9.0 | 0.00 | 0.00 | 0.00 | 39 | 1019.7 |
| 20260903134515 | 73 | 23 | 4.0 | 9.0 | 0.00 | 0.00 | 0.00 | 42 | 1019.1 |
| 20260903133015 | 70 | 45 | 4.0 | 6.0 | 0.00 | 0.00 | 0.00 | 42 | 1018.9 |
| 20260903131515 | 69 | 23 | 3.0 | 5.0 | 0.00 | 0.00 | 0.00 | 42 | 1018.5 |
| 20260903130015 | 69 | 23 | 3.0 | 5.0 | 0.00 | 0.00 | 0.00 | 43 | 1018.3 |
| 20260903124515 | 69 | 23 | 4.0 | 5.0 | 0.00 | 0.00 | 0.00 | 42 | 1018.1 |
| 20260903123015 | 69 | 23 | 4.0 | 5.0 | 0.00 | 0.00 | 0.00 | 44 | 1018.2 |
| 20260903121515 | 70 | 0 | 3.0 | 5.0 | 0.00 | 0.00 | 0.00 | 42 | 1018.1 |
| 20260903120016 | 70 | 0 | 3.0 | 4.0 | 0.00 | 0.00 | 0.00 | 42 | 1018.3 |
| 20260903114535 | 70 | 0 | 3.0 | 4.0 | 0.00 | 0.00 | 0.00 | 42 | 1018.2 |
| 20260903113035 | 72 | 338 | 4.0 | 7.0 | 0.00 | 0.00 | 0.00 | 41 | 1018.5 |
| 20260903111515 | 72 | 315 | 5.0 | 8.0 | 0.00 | 0.00 | 0.00 | 40 | 1018.5 |
| 20260903110017 | 72 | 315 | 5.0 | 8.0 | 0.00 | 0.00 | 0.00 | 37 | 1018.3 |
| 20260903104517 | 73 | 315 | 5.0 | 8.0 | 0.00 | 0.00 | 0.00 | 35 | 1018.4 |
| 20260903103037 | 74 | 315 | 6.0 | 9.0 | 0.00 | 0.00 | 0.00 | 34 | 1018.7 |
| 20260903101517 | 74 | 338 | 4.0 | 7.0 | 0.00 | 0.00 | 0.00 | 33 | 1018.7 |
| 20260903100017 | 74 | 315 | 6.0 | 9.0 | 0.00 | 0.00 | 0.00 | 37 | 1018.6 |
| 20260903094517 | 74 | 338 | 6.0 | 9.0 | 0.00 | 0.00 | 0.00 | 37 | 1018.5 |
| 20260903093037 | 74 | 0 | 7.0 | 10.0 | 0.00 | 0.00 | 0.00 | 37 | 1018.2 |
| 20260903091517 | 74 | 338 | 6.0 | 10.0 | 0.00 | 0.00 | 0.00 | 37 | 1018.2 |
| 20260903090017 | 75 | 315 | 7.0 | 11.0 | 0.00 | 0.00 | 0.00 | 36 | 1018.5 |
| 20260903084517 | 75 | 338 | 5.0 | 9.0 | 0.00 | 0.00 | 0.00 | 36 | 1018.5 |
| 20260903083017 | 75 | 338 | 4.0 | 11.0 | 0.00 | 0.00 | 0.00 | 35 | 1018.4 |
| 20260903081517 | 75 | 293 | 7.0 | 10.0 | 0.00 | 0.00 | 0.00 | 33 | 1018.2 |
| 20260903080017 | 75 | 293 | 8.0 | 11.0 | 0.00 | 0.00 | 0.00 | 32 | 1017.9 |
| 20260903074517 | 75 | 293 | 9.0 | 12.0 | 0.00 | 0.00 | 0.00 | 32 | 1017.8 |
| 20260903073017 | 75 | 293 | 9.0 | 13.0 | 0.00 | 0.00 | 0.00 | 31 | 1017.7 |
| 20260903071537 | 75 | 315 | 8.0 | 10.0 | 0.00 | 0.00 | 0.00 | 30 | 1017.6 |
| 20260903070017 | 76 | 315 | 8.0 | 10.0 | 0.00 | 0.00 | 0.00 | 29 | 1017.2 |
| 20260903064517 | 77 | 315 | 7.0 | 11.0 | 0.00 | 0.00 | 0.00 | 28 | 1017.6 |
| 20260903063016 | 78 | 315 | 6.0 | 9.0 | 0.00 | 0.00 | 0.00 | 28 | 1017.6 |
| 20260903061517 | 78 | 315 | 6.0 | 10.0 | 0.00 | 0.00 | 0.00 | 28 | 1017.5 |
| 20260903060017 | 79 | 293 | 4.0 | 7.0 | 0.00 | 0.00 | 0.00 | 29 | 1017.4 |
| 20260903054517 | 80 | 248 | 2.0 | 6.0 | 0.00 | 0.00 | 0.00 | 29 | 1017.7 |
| 20260903053017 | 82 | 248 | 2.0 | 4.0 | 0.00 | 0.00 | 0.00 | 29 | 1017.5 |
| 20260903051517 | 82 | 293 | 5.0 | 9.0 | 0.00 | 0.00 | 0.00 | 29 | 1017.5 |
| 20260903050017 | 81 | 203 | 3.0 | 8.0 | 0.00 | 0.00 | 0.00 | 29 | 1017.3 |
| 20260903044557 | 81 | 158 | 5.0 | 7.0 | 0.00 | 0.00 | 0.00 | 29 | 1017.1 |
| 20260903043016 | 82 | 158 | 6.0 | 8.0 | 0.00 | 0.00 | 0.00 | 29 | 1017.0 |
| 20260903041517 | 82 | 158 | 5.0 | 7.0 | 0.00 | 0.00 | 0.00 | 29 | 1017.0 |
| 20260903040017 | 81 | 135 | 4.0 | 7.0 | 0.00 | 0.00 | 0.00 | 28 | 1016.7 |
| 20260903034517 | 84 | 180 | 2.0 | 4.0 | 0.00 | 0.00 | 0.00 | 26 | 1016.9 |
| 20260903033039 | 85 | 158 | 3.0 | 4.0 | 0.00 | 0.00 | 0.00 | 26 | 1016.9 |
| 20260903031517 | 85 | 90 | 4.0 | 6.0 | 0.00 | 0.00 | 0.00 | 26 | 1016.7 |
| 20260903030037 | 84 | 90 | 3.0 | 4.0 | 0.00 | 0.00 | 0.00 | 26 | 1016.3 |
| 20260903024516 | 83 | 90 | 3.0 | 4.0 | 0.00 | 0.00 | 0.00 | 26 | 1015.7 |
| 20260903023037 | 85 | 90 | 2.0 | 5.0 | 0.00 | 0.00 | 0.00 | 25 | 1015.5 |
| 20260903021533 | 86 | 90 | 3.0 | 5.0 | 0.00 | 0.00 | 0.00 | 25 | 1015.4 |
| 20260903020016 | 86 | 68 | 2.0 | 5.0 | 0.00 | 0.00 | 0.00 | 25 | 1015.1 |
| 20260903014516 | 86 | 68 | 3.0 | 4.0 | 0.00 | 0.00 | 0.00 | 25 | 1014.9 |
| 20260903013016 | 87 | 90 | 3.0 | 5.0 | 0.00 | 0.00 | 0.00 | 25 | 1014.9 |
| 20260903011516 | 88 | 90 | 2.0 | 4.0 | 0.00 | 0.00 | 0.00 | 24 | 1014.9 |
| 20260903010016 | 89 | 90 | 1.0 | 3.0 | 0.00 | 0.00 | 0.00 | 23 | 1014.9 |
| 20260903004516 | 88 | 113 | 4.0 | 8.0 | 0.00 | 0.00 | 0.00 | 23 | 1015.0 |
| 20260903003036 | 89 | 135 | 4.0 | 9.0 | 0.00 | 0.00 | 0.00 | 23 | 1015.4 |
| 20260903001535 | 89 | 113 | 5.0 | 11.0 | 0.00 | 0.00 | 0.00 | 23 | 1015.5 |
| 20260903000017 | 90 | 90 | 3.0 | 9.0 | 0.00 | 0.00 | 0.00 | 23 | 1015.9 |
| 20260902234517 | 91 | 135 | 4.0 | 13.0 | 0.00 | 0.00 | 0.00 | 22 | 1016.0 |
| 20260902233037 | 90 | 135 | 7.0 | 13.0 | 0.00 | 0.00 | 0.00 | 23 | 1016.1 |
| 20260902231537 | 91 | 158 | 6.0 | 13.0 | 0.00 | 0.00 | 0.00 | 23 | 1016.3 |
| 20260902230016 | 91 | 225 | 4.0 | 11.0 | 0.00 | 0.00 | 0.00 | 21 | 1017.1 |